Time;durP1;ratioP1;P1;durP2;ratioP2;P2;SDS_P1;SDS_P2;PMS_P1;PMS_P2;Temp;Humidity;BMP_temperature;BMP_pressure;BME280_temperature;BME280_humidity;BME280_pressure;Samples;Min_cycle;Max_cycle;Signal;HPM_P1;HPM_P2
2023/12/11 00:00:00;;;;;;;17.48;3.80;;;8.70;99.90;;;;;;5134140;27;20472;-78
2023/12/11 00:02:26;;;;;;;18.20;4.00;;;8.70;99.90;;;;;;5133609;27;20068;-79
2023/12/11 00:04:52;;;;;;;26.17;4.97;;;8.70;99.90;;;;;;5134147;27;20034;-77
2023/12/11 00:07:18;;;;;;;20.88;4.53;;;8.60;99.90;;;;;;5114756;27;20035;-76
2023/12/11 00:09:43;;;;;;;17.23;4.05;;;8.60;99.90;;;;;;5133898;27;20046;-78
2023/12/11 00:12:09;;;;;;;20.95;3.88;;;8.60;99.90;;;;;;5133815;27;20171;-78
2023/12/11 00:14:35;;;;;;;16.42;4.35;;;8.60;99.90;;;;;;5133955;27;20023;-76
2023/12/11 00:17:01;;;;;;;34.80;5.50;;;8.60;99.90;;;;;;5133735;27;20340;-77
2023/12/11 00:19:27;;;;;;;24.23;5.65;;;8.60;99.90;;;;;;5133239;27;20047;-76
2023/12/11 00:21:54;;;;;;;30.17;5.00;;;8.60;99.90;;;;;;5134085;27;20167;-76
2023/12/11 00:24:19;;;;;;;22.70;5.07;;;8.60;99.90;;;;;;5114554;27;20024;-76
2023/12/11 00:26:45;;;;;;;21.13;5.53;;;8.60;99.90;;;;;;5114482;27;20567;-77
2023/12/11 00:29:11;;;;;;;30.08;5.20;;;8.60;99.90;;;;;;5133215;27;20027;-78
2023/12/11 00:31:36;;;;;;;25.65;4.88;;;8.60;99.90;;;;;;5133407;27;20106;-76
2023/12/11 00:34:02;;;;;;;27.40;4.70;;;8.60;99.90;;;;;;5133204;27;20065;-77
2023/12/11 00:36:28;;;;;;;31.13;4.97;;;8.60;99.90;;;;;;5132836;27;20035;-77
2023/12/11 00:38:54;;;;;;;25.65;5.60;;;8.60;99.90;;;;;;5114768;27;20023;-76
2023/12/11 00:41:19;;;;;;;23.52;4.80;;;8.60;99.90;;;;;;5132609;27;20075;-76
2023/12/11 00:43:45;;;;;;;19.42;5.13;;;8.70;99.90;;;;;;5133278;27;20024;-78
2023/12/11 00:46:13;;;;;;;21.92;4.85;;;8.70;99.90;;;;;;5132752;27;20354;-78
2023/12/11 00:48:39;;;;;;;31.42;5.32;;;8.60;99.90;;;;;;5133036;27;20023;-77
2023/12/11 00:51:04;;;;;;;22.15;4.93;;;8.60;99.90;;;;;;5133225;27;20461;-78
2023/12/11 00:53:30;;;;;;;23.00;4.28;;;8.60;99.90;;;;;;5114018;27;20095;-77
2023/12/11 00:55:56;;;;;;;24.60;4.93;;;8.60;99.90;;;;;;5133058;27;20035;-78
2023/12/11 00:58:21;;;;;;;21.77;4.20;;;8.70;99.90;;;;;;5131920;27;20121;-77
2023/12/11 01:00:47;;;;;;;23.67;4.68;;;8.60;99.90;;;;;;5133341;27;20023;-77
2023/12/11 01:03:13;;;;;;;21.70;4.35;;;8.70;99.90;;;;;;5132552;27;20023;-78
2023/12/11 01:05:39;;;;;;;19.23;4.13;;;8.70;99.90;;;;;;5132779;27;20361;-77
2023/12/11 01:08:04;;;;;;;22.02;4.35;;;8.70;99.90;;;;;;5132969;27;20027;-77
2023/12/11 01:10:30;;;;;;;21.05;4.10;;;8.70;99.90;;;;;;5132284;27;20103;-77
2023/12/11 01:12:56;;;;;;;17.10;3.83;;;8.70;99.90;;;;;;5114297;27;20031;-77
2023/12/11 01:15:21;;;;;;;20.88;3.90;;;8.70;99.90;;;;;;5132032;27;20464;-78
2023/12/11 01:17:47;;;;;;;14.95;3.00;;;8.80;99.90;;;;;;5113961;27;20088;-78
2023/12/11 01:20:13;;;;;;;15.43;3.45;;;8.80;99.90;;;;;;5131932;27;20019;-77
2023/12/11 01:22:39;;;;;;;13.88;2.83;;;8.80;99.90;;;;;;5132728;27;20122;-76
2023/12/11 01:25:05;;;;;;;15.63;2.97;;;9.00;99.90;;;;;;5132836;27;20026;-76
2023/12/11 01:27:30;;;;;;;12.98;3.22;;;8.90;99.90;;;;;;5132052;27;20031;-77
2023/12/11 01:29:56;;;;;;;16.02;3.35;;;9.00;99.90;;;;;;5133690;27;20027;-77
2023/12/11 01:32:22;;;;;;;13.10;2.85;;;9.00;99.90;;;;;;5133115;27;20467;-77
2023/12/11 01:34:47;;;;;;;16.48;3.28;;;9.00;99.90;;;;;;5133080;27;20110;-77
2023/12/11 01:37:13;;;;;;;12.63;2.83;;;9.10;99.90;;;;;;5132472;27;20027;-77
2023/12/11 01:39:39;;;;;;;16.58;2.83;;;9.00;99.90;;;;;;5114269;27;20029;-77
2023/12/11 01:42:04;;;;;;;13.23;3.05;;;9.00;99.90;;;;;;5132714;27;20452;-77
2023/12/11 01:44:30;;;;;;;10.13;2.30;;;9.00;99.90;;;;;;5113781;27;20019;-78
2023/12/11 01:46:56;;;;;;;15.27;2.95;;;9.00;99.90;;;;;;5132539;27;20465;-77
2023/12/11 01:49:22;;;;;;;8.02;2.25;;;9.00;99.90;;;;;;5131933;27;20036;-77
2023/12/11 01:51:48;;;;;;;10.32;2.38;;;9.00;99.90;;;;;;5132389;27;20054;-78
2023/12/11 01:54:14;;;;;;;8.52;2.53;;;9.00;99.90;;;;;;5131912;27;20019;-77
2023/12/11 01:56:41;;;;;;;8.00;2.30;;;8.90;99.90;;;;;;5131330;27;20027;-77
2023/12/11 01:59:07;;;;;;;11.18;2.72;;;8.90;99.90;;;;;;5131993;27;20114;-78
2023/12/11 02:01:35;;;;;;;8.25;2.33;;;8.90;99.90;;;;;;5131176;27;20106;-78
2023/12/11 02:04:01;;;;;;;9.77;2.30;;;8.90;99.90;;;;;;5132680;27;20479;-77
2023/12/11 02:06:26;;;;;;;9.35;2.17;;;8.90;99.90;;;;;;5131436;27;20063;-76
2023/12/11 02:08:52;;;;;;;10.45;2.70;;;8.90;99.90;;;;;;5132409;27;20084;-77
2023/12/11 02:11:18;;;;;;;12.43;3.05;;;8.90;99.90;;;;;;5112380;27;20135;-77
2023/12/11 02:13:44;;;;;;;7.75;2.47;;;8.90;99.90;;;;;;5132302;27;20019;-77
2023/12/11 02:16:16;;;;;;;6.75;3.20;;;8.90;99.90;;;;;;5131730;27;20042;-77
2023/12/11 02:18:42;;;;;;;8.00;2.40;;;8.90;99.90;;;;;;5132227;27;20050;-77
2023/12/11 02:21:09;;;;;;;8.90;2.58;;;8.90;99.90;;;;;;5132224;27;20031;-76
2023/12/11 02:23:50;;;;;;;5.68;1.98;;;8.90;99.90;;;;;;5131633;27;20023;-76
2023/12/11 02:26:18;;;;;;;10.15;2.38;;;8.90;99.90;;;;;;5131392;27;20406;-76
2023/12/11 02:28:44;;;;;;;9.23;2.10;;;8.80;99.90;;;;;;5132012;27;20019;-76
2023/12/11 02:31:10;;;;;;;10.25;2.40;;;8.80;99.90;;;;;;5113402;27;20349;-76
2023/12/11 02:33:36;;;;;;;11.48;2.65;;;8.90;99.90;;;;;;5131928;27;20038;-76
2023/12/11 02:36:02;;;;;;;15.68;2.33;;;8.90;99.90;;;;;;5113786;27;20441;-77
2023/12/11 02:38:28;;;;;;;11.45;2.10;;;8.80;99.90;;;;;;5113310;27;20031;-76
2023/12/11 02:40:54;;;;;;;9.75;2.03;;;8.90;99.90;;;;;;5113693;27;20027;-76
2023/12/11 02:43:19;;;;;;;7.50;1.92;;;8.80;99.90;;;;;;5131495;27;20030;-76
2023/12/11 02:45:45;;;;;;;8.98;1.70;;;8.80;99.90;;;;;;5131871;27;20035;-76
2023/12/11 02:48:11;;;;;;;6.63;2.05;;;8.70;99.90;;;;;;5132238;27;20023;-77
2023/12/11 02:50:37;;;;;;;10.20;2.05;;;8.80;99.90;;;;;;5112870;27;20106;-77
2023/12/11 02:53:04;;;;;;;5.95;1.50;;;8.80;99.90;;;;;;5131701;27;20024;-77
2023/12/11 02:55:30;;;;;;;5.70;1.30;;;8.80;99.90;;;;;;5131240;27;20055;-77
2023/12/11 02:58:00;;;;;;;13.07;1.90;;;8.70;99.90;;;;;;5131549;27;20079;-77
2023/12/11 03:00:27;;;;;;;6.00;1.80;;;8.90;99.90;;;;;;5131338;28;20059;-78
2023/12/11 03:02:53;;;;;;;10.95;1.70;;;8.80;99.90;;;;;;5131697;28;20015;-77
2023/12/11 03:05:19;;;;;;;7.10;1.45;;;8.80;99.90;;;;;;5131254;28;20027;-78
2023/12/11 03:07:45;;;;;;;4.25;1.58;;;8.80;99.90;;;;;;5112861;28;20035;-77
2023/12/11 03:10:11;;;;;;;6.57;1.65;;;8.80;99.90;;;;;;5131333;28;20351;-77
2023/12/11 03:12:36;;;;;;;10.65;2.10;;;8.80;99.90;;;;;;5131016;28;20372;-78
2023/12/11 03:15:04;;;;;;;6.10;2.03;;;8.80;99.90;;;;;;5131667;28;20473;-77
2023/12/11 03:17:29;;;;;;;11.30;2.15;;;8.80;99.90;;;;;;5130686;28;20377;-77
2023/12/11 03:19:55;;;;;;;8.23;2.10;;;8.90;99.90;;;;;;5131569;28;20034;-77
2023/12/11 03:22:24;;;;;;;8.80;2.50;;;8.90;99.90;;;;;;5133295;27;20028;-77
2023/12/11 03:24:50;;;;;;;11.60;2.05;;;8.80;99.90;;;;;;5135660;27;20100;-78
2023/12/11 03:27:16;;;;;;;5.80;1.40;;;8.90;99.90;;;;;;5135474;27;20038;-78
2023/12/11 03:29:42;;;;;;;7.70;1.30;;;8.80;99.90;;;;;;5135703;27;20140;-78
2023/12/11 03:32:08;;;;;;;3.67;0.82;;;8.80;99.90;;;;;;5135636;27;20027;-79
2023/12/11 03:34:34;;;;;;;5.18;0.95;;;8.70;99.90;;;;;;5134510;27;20023;-77
2023/12/11 03:37:01;;;;;;;3.40;0.60;;;8.60;99.90;;;;;;5135123;27;20103;-78
2023/12/11 03:39:27;;;;;;;3.70;0.85;;;8.60;99.90;;;;;;5116058;27;20076;-78
2023/12/11 03:41:52;;;;;;;4.10;1.10;;;8.60;99.90;;;;;;5135211;27;20023;-78
2023/12/11 03:44:18;;;;;;;5.88;1.20;;;8.50;99.90;;;;;;5134811;27;20027;-78
2023/12/11 03:46:44;;;;;;;1.88;0.60;;;8.40;99.90;;;;;;5135054;27;20038;-78
2023/12/11 03:49:10;;;;;;;3.75;0.60;;;8.30;99.90;;;;;;5135351;27;20085;-79
2023/12/11 03:51:35;;;;;;;4.05;0.88;;;8.30;99.90;;;;;;5134612;27;20095;-79
2023/12/11 03:54:01;;;;;;;3.10;0.70;;;8.30;99.90;;;;;;5116643;27;20023;-78
2023/12/11 03:56:27;;;;;;;0.75;0.47;;;8.20;99.90;;;;;;5134406;27;20023;-79
2023/12/11 03:58:53;;;;;;;5.00;0.73;;;8.20;99.90;;;;;;5114063;28;20036;-78
2023/12/11 04:01:19;;;;;;;4.00;0.60;;;8.10;99.90;;;;;;5112681;28;20538;-79
2023/12/11 04:03:46;;;;;;;3.13;0.82;;;8.20;99.90;;;;;;5113873;28;20392;-79
2023/12/11 04:06:11;;;;;;;5.45;1.20;;;8.20;99.90;;;;;;5114403;28;20033;-78
2023/12/11 04:08:40;;;;;;;5.47;0.80;;;8.20;99.90;;;;;;5113506;28;20036;-77
2023/12/11 04:11:07;;;;;;;4.75;1.10;;;8.30;99.90;;;;;;5113989;28;20413;-77
2023/12/11 04:13:33;;;;;;;4.18;0.98;;;8.30;99.90;;;;;;5112091;28;20031;-77
2023/12/11 04:15:59;;;;;;;3.25;0.70;;;8.30;99.90;;;;;;5112800;28;20031;-77
2023/12/11 04:18:25;;;;;;;4.50;1.08;;;8.40;99.90;;;;;;5113270;28;20333;-77
2023/12/11 04:20:50;;;;;;;3.00;0.98;;;8.40;99.90;;;;;;5114204;28;20016;-78
2023/12/11 04:23:16;;;;;;;4.57;0.85;;;8.40;99.90;;;;;;5114473;28;20043;-77
2023/12/11 04:25:42;;;;;;;4.50;1.10;;;8.40;99.90;;;;;;5111998;28;20122;-78
2023/12/11 04:28:07;;;;;;;3.50;0.68;;;8.50;99.90;;;;;;5114141;28;20028;-78
2023/12/11 04:30:33;;;;;;;5.78;1.00;;;8.50;99.90;;;;;;5112530;28;20035;-78
2023/12/11 04:32:59;;;;;;;4.47;1.23;;;8.50;99.90;;;;;;5112968;27;20032;-78
2023/12/11 04:35:25;;;;;;;4.05;0.75;;;8.50;99.90;;;;;;5112985;28;20031;-79
2023/12/11 04:37:50;;;;;;;3.90;0.60;;;8.50;99.90;;;;;;5113944;28;20035;-78
2023/12/11 04:40:16;;;;;;;9.48;1.38;;;8.50;99.90;;;;;;5113897;28;20103;-79
2023/12/11 04:42:42;;;;;;;2.97;0.60;;;8.50;99.90;;;;;;5113180;28;20434;-78
2023/12/11 04:45:08;;;;;;;3.47;0.70;;;8.60;99.90;;;;;;5112301;28;20066;-78
2023/12/11 04:47:33;;;;;;;3.20;0.70;;;8.50;99.90;;;;;;5112778;28;20042;-78
2023/12/11 04:49:59;;;;;;;3.55;0.93;;;8.50;99.90;;;;;;5113919;28;20036;-78
2023/12/11 04:52:25;;;;;;;4.20;0.80;;;8.50;99.90;;;;;;5113302;28;20381;-78
2023/12/11 04:54:50;;;;;;;2.55;1.00;;;8.60;99.90;;;;;;5114009;28;20034;-78
2023/12/11 04:57:16;;;;;;;7.63;1.33;;;8.50;99.90;;;;;;5120684;27;20073;-78
2023/12/11 04:59:42;;;;;;;2.50;0.80;;;8.50;99.90;;;;;;5133128;27;20026;-78
2023/12/11 05:02:08;;;;;;;8.77;1.00;;;8.50;99.90;;;;;;5133724;27;20128;-78
2023/12/11 05:04:33;;;;;;;5.30;1.00;;;8.50;99.90;;;;;;5133366;27;20062;-78
2023/12/11 05:06:59;;;;;;;2.88;0.82;;;8.40;99.90;;;;;;5133751;27;20070;-78
2023/12/11 05:09:25;;;;;;;7.55;0.95;;;8.40;99.90;;;;;;5133356;27;20436;-78
2023/12/11 05:11:50;;;;;;;3.85;0.95;;;8.50;99.90;;;;;;5133674;27;20023;-78
2023/12/11 05:14:16;;;;;;;3.30;0.98;;;8.40;99.90;;;;;;5133873;27;20028;-78
2023/12/11 05:16:42;;;;;;;4.40;0.68;;;8.40;99.90;;;;;;5133087;27;20115;-78
2023/12/11 05:19:08;;;;;;;4.05;1.02;;;8.50;99.90;;;;;;5133462;27;20106;-78
2023/12/11 05:21:34;;;;;;;2.53;0.68;;;8.40;99.90;;;;;;5132847;27;20019;-78
2023/12/11 05:23:59;;;;;;;2.63;1.15;;;8.50;99.90;;;;;;5133201;27;20026;-78
2023/12/11 05:26:25;;;;;;;8.25;0.65;;;8.50;99.90;;;;;;5132928;27;20380;-78
2023/12/11 05:28:51;;;;;;;4.00;0.77;;;8.40;99.90;;;;;;5114339;27;20110;-78
2023/12/11 05:31:17;;;;;;;3.63;0.80;;;8.50;99.90;;;;;;5133100;27;20055;-78
2023/12/11 05:33:43;;;;;;;4.63;0.73;;;8.40;99.90;;;;;;5132370;27;20659;-78
2023/12/11 05:36:09;;;;;;;3.35;0.80;;;8.40;99.90;;;;;;5132992;27;20386;-78
2023/12/11 05:38:35;;;;;;;5.63;1.10;;;8.40;99.90;;;;;;5132070;27;20369;-77
2023/12/11 05:41:01;;;;;;;6.80;1.08;;;8.40;99.90;;;;;;5132688;27;20027;-78
2023/12/11 05:43:26;;;;;;;6.00;0.98;;;8.40;99.90;;;;;;5113593;27;20019;-78
2023/12/11 05:45:52;;;;;;;6.40;0.98;;;8.40;99.90;;;;;;5131729;27;20487;-77
2023/12/11 05:48:18;;;;;;;7.25;1.02;;;8.50;99.90;;;;;;5132403;27;20118;-78
2023/12/11 05:50:44;;;;;;;6.70;1.90;;;8.40;99.90;;;;;;5113541;27;20232;-78
2023/12/11 05:53:10;;;;;;;4.10;1.42;;;8.40;99.90;;;;;;5132764;27;20019;-78
2023/12/11 05:55:36;;;;;;;6.90;1.58;;;8.40;99.90;;;;;;5132144;27;20023;-78
2023/12/11 05:58:02;;;;;;;5.95;1.15;;;8.50;99.90;;;;;;5132276;27;20436;-78
2023/12/11 06:00:28;;;;;;;4.13;1.33;;;8.40;99.90;;;;;;5132120;27;20023;-78
2023/12/11 06:02:53;;;;;;;3.42;0.93;;;8.40;99.90;;;;;;5132890;27;20038;-77
2023/12/11 06:05:19;;;;;;;4.53;0.82;;;8.40;99.90;;;;;;5132703;27;20445;-77
2023/12/11 06:07:45;;;;;;;4.40;0.90;;;8.40;99.90;;;;;;5132631;27;20023;-77
2023/12/11 06:10:11;;;;;;;8.65;1.55;;;8.40;99.90;;;;;;5132818;27;20054;-77
2023/12/11 06:12:36;;;;;;;7.30;1.02;;;8.40;99.90;;;;;;5131957;27;20019;-77
2023/12/11 06:15:02;;;;;;;8.50;1.08;;;8.40;99.90;;;;;;5132560;27;20023;-78
2023/12/11 06:17:28;;;;;;;6.25;1.05;;;8.30;99.90;;;;;;5131940;27;20035;-78
2023/12/11 06:19:54;;;;;;;8.07;1.33;;;8.20;99.90;;;;;;5132422;27;20119;-76
2023/12/11 06:22:19;;;;;;;6.07;1.05;;;8.20;99.90;;;;;;5133133;27;20329;-77
2023/12/11 06:24:45;;;;;;;5.97;1.38;;;8.20;99.90;;;;;;5131431;27;20030;-77
2023/12/11 06:27:11;;;;;;;4.60;1.20;;;8.10;99.90;;;;;;5113624;27;20031;-77
2023/12/11 06:29:39;;;;;;;6.53;1.00;;;8.10;99.90;;;;;;5113435;27;20037;-77
2023/12/11 06:32:05;;;;;;;9.07;1.20;;;8.10;99.90;;;;;;5131997;27;20019;-76
2023/12/11 06:34:31;;;;;;;5.45;0.90;;;8.10;99.90;;;;;;5132361;27;20110;-77
2023/12/11 06:36:57;;;;;;;4.72;1.30;;;8.00;99.90;;;;;;5132809;27;20035;-78
2023/12/11 06:39:25;;;;;;;4.80;1.40;;;8.00;99.90;;;;;;5132726;27;20045;-78
2023/12/11 06:41:51;;;;;;;5.57;0.70;;;8.00;99.90;;;;;;5132704;27;20034;-78
2023/12/11 06:44:16;;;;;;;6.78;1.20;;;7.90;99.90;;;;;;5113545;27;20019;-77
2023/12/11 06:46:42;;;;;;;3.40;1.27;;;7.90;99.90;;;;;;5131377;27;20066;-77
2023/12/11 06:49:07;;;;;;;10.02;1.38;;;7.80;99.90;;;;;;5132321;27;20030;-77
2023/12/11 06:51:35;;;;;;;7.95;1.02;;;7.80;99.90;;;;;;5131590;27;20023;-77
2023/12/11 06:54:01;;;;;;;7.63;1.30;;;7.80;99.90;;;;;;5113402;27;20027;-77
2023/12/11 06:56:27;;;;;;;8.45;2.30;;;7.80;99.90;;;;;;5131453;27;20154;-77
2023/12/11 06:58:53;;;;;;;5.47;1.27;;;7.80;99.90;;;;;;5131291;27;20071;-77
2023/12/11 07:01:19;;;;;;;4.03;0.90;;;7.80;99.90;;;;;;5133192;28;20485;-77
2023/12/11 07:03:45;;;;;;;4.97;1.30;;;7.80;99.90;;;;;;5130944;28;20028;-78
2023/12/11 07:06:11;;;;;;;8.02;1.73;;;7.90;99.90;;;;;;5131189;28;20057;-77
2023/12/11 07:08:37;;;;;;;6.68;1.30;;;7.90;99.90;;;;;;5130740;28;20127;-77
2023/12/11 07:11:03;;;;;;;4.78;1.50;;;8.00;99.90;;;;;;5131275;28;20414;-78
2023/12/11 07:13:29;;;;;;;4.93;1.20;;;7.90;99.90;;;;;;5131376;28;20448;-79
2023/12/11 07:15:55;;;;;;;6.15;1.45;;;7.90;99.90;;;;;;5131161;28;20038;-76
2023/12/11 07:18:22;;;;;;;7.95;1.45;;;7.80;99.90;;;;;;5131572;28;20079;-77
2023/12/11 07:20:47;;;;;;;5.35;0.93;;;7.80;99.90;;;;;;5130150;28;20043;-77
2023/12/11 07:23:13;;;;;;;9.68;1.70;;;7.80;99.90;;;;;;5132062;28;20023;-77
2023/12/11 07:25:39;;;;;;;6.30;1.45;;;7.80;99.90;;;;;;5131135;28;20026;-78
2023/12/11 07:28:05;;;;;;;6.93;1.42;;;7.70;99.90;;;;;;5131708;28;20032;-77
2023/12/11 07:30:31;;;;;;;7.82;1.60;;;7.60;99.90;;;;;;5131559;28;20079;-77
2023/12/11 07:32:57;;;;;;;7.80;1.55;;;7.60;99.90;;;;;;5131362;28;20047;-77
2023/12/11 07:35:24;;;;;;;3.58;1.15;;;7.60;99.90;;;;;;5131250;28;20046;-77
2023/12/11 07:37:51;;;;;;;4.30;1.17;;;7.50;99.90;;;;;;5130694;28;20027;-77
2023/12/11 07:40:17;;;;;;;7.78;1.23;;;7.50;99.90;;;;;;5131074;28;20030;-77
2023/12/11 07:42:43;;;;;;;6.15;1.70;;;7.50;99.90;;;;;;5130802;28;20416;-77
2023/12/11 07:45:09;;;;;;;11.07;2.35;;;7.40;99.90;;;;;;5130376;28;20080;-76
2023/12/11 07:47:35;;;;;;;11.90;2.20;;;7.40;99.90;;;;;;5129961;28;20031;-77
2023/12/11 07:50:01;;;;;;;8.55;1.38;;;7.30;99.90;;;;;;5130631;28;20024;-77
2023/12/11 07:52:30;;;;;;;8.10;2.10;;;7.30;99.90;;;;;;5131096;28;20023;-77
2023/12/11 07:54:59;;;;;;;9.45;1.80;;;7.30;99.90;;;;;;5130319;28;20364;-77
2023/12/11 07:57:26;;;;;;;7.15;1.90;;;7.30;99.90;;;;;;5112179;28;20547;-78
2023/12/11 07:59:52;;;;;;;8.27;1.35;;;7.30;99.90;;;;;;5130300;28;20019;-78
2023/12/11 08:02:18;;;;;;;8.23;1.52;;;7.20;99.90;;;;;;5130980;28;20095;-78
2023/12/11 08:04:43;;;;;;;6.63;1.73;;;7.20;99.90;;;;;;5130369;28;20452;-77
2023/12/11 08:07:09;;;;;;;6.90;1.40;;;7.20;99.90;;;;;;5112083;27;20070;-77
2023/12/11 08:09:39;;;;;;;6.85;1.13;;;7.20;99.90;;;;;;5132955;27;20519;-78
2023/12/11 08:12:06;;;;;;;4.90;1.30;;;7.20;99.90;;;;;;5134591;27;20046;-78
2023/12/11 08:14:32;;;;;;;5.15;1.15;;;7.20;99.90;;;;;;5134412;27;20110;-78
2023/12/11 08:16:58;;;;;;;8.45;1.60;;;7.20;99.90;;;;;;5115768;27;20070;-78
2023/12/11 08:19:24;;;;;;;6.57;1.45;;;7.20;99.90;;;;;;5116136;27;20031;-77
2023/12/11 08:21:51;;;;;;;6.07;1.45;;;7.20;99.90;;;;;;5133800;27;20131;-78
2023/12/11 08:24:16;;;;;;;8.70;1.40;;;7.20;99.90;;;;;;5134470;27;20102;-76
2023/12/11 08:26:43;;;;;;;9.55;1.40;;;7.20;99.90;;;;;;5133921;27;20417;-77
2023/12/11 08:29:09;;;;;;;8.20;1.33;;;7.20;99.90;;;;;;5134435;27;20070;-77
2023/12/11 08:31:35;;;;;;;9.68;1.30;;;7.20;99.90;;;;;;5134009;27;20058;-77
2023/12/11 08:34:01;;;;;;;4.53;1.27;;;7.20;99.90;;;;;;5115391;27;20377;-78
2023/12/11 08:36:27;;;;;;;8.48;2.50;;;7.20;99.90;;;;;;5134449;27;20031;-77
2023/12/11 08:38:52;;;;;;;7.57;1.48;;;7.20;99.90;;;;;;5133572;27;20325;-77
2023/12/11 08:41:18;;;;;;;6.53;1.40;;;7.20;99.90;;;;;;5133784;27;20031;-77
2023/12/11 08:43:44;;;;;;;12.55;1.65;;;7.10;99.90;;;;;;5114549;27;20031;-77
2023/12/11 08:46:10;;;;;;;5.05;1.58;;;7.10;99.90;;;;;;5133643;27;20030;-77
2023/12/11 08:48:35;;;;;;;6.30;1.20;;;7.10;99.90;;;;;;5133651;27;20027;-78
2023/12/11 08:51:02;;;;;;;9.85;1.60;;;7.10;99.90;;;;;;5132877;27;20050;-77
2023/12/11 08:53:28;;;;;;;10.13;2.38;;;7.10;99.90;;;;;;5133883;27;20027;-76
2023/12/11 08:55:54;;;;;;;7.30;1.73;;;7.20;99.90;;;;;;5133185;27;20027;-78
2023/12/11 08:58:20;;;;;;;10.77;2.55;;;7.20;99.90;;;;;;5133453;27;20142;-78
2023/12/11 09:00:45;;;;;;;10.50;1.38;;;7.20;99.90;;;;;;5132723;27;20102;-78
2023/12/11 09:03:11;;;;;;;6.30;1.50;;;7.20;99.90;;;;;;5133491;27;20023;-78
2023/12/11 09:05:37;;;;;;;6.72;1.50;;;7.20;99.90;;;;;;5133444;27;20027;-79
2023/12/11 09:08:03;;;;;;;3.30;1.25;;;7.30;99.90;;;;;;5133201;27;20035;-78
2023/12/11 09:10:29;;;;;;;13.18;1.60;;;7.30;99.90;;;;;;5133291;27;20030;-78
2023/12/11 09:12:55;;;;;;;7.78;1.40;;;7.30;99.90;;;;;;5132592;27;20456;-76
2023/12/11 09:15:20;;;;;;;8.95;1.42;;;7.30;99.90;;;;;;5133082;27;20031;-77
2023/12/11 09:17:46;;;;;;;5.10;1.35;;;7.40;99.90;;;;;;5132175;27;20027;-76
2023/12/11 09:20:12;;;;;;;5.03;1.55;;;7.40;99.90;;;;;;5132736;27;20031;-77
2023/12/11 09:22:41;;;;;;;9.25;2.00;;;7.40;99.90;;;;;;5132897;27;20027;-78
2023/12/11 09:25:07;;;;;;;9.10;1.73;;;7.40;99.90;;;;;;5133339;27;20171;-77
2023/12/11 09:27:33;;;;;;;4.80;1.27;;;7.40;99.90;;;;;;5114205;27;20027;-78
2023/12/11 09:29:59;;;;;;;4.22;1.30;;;7.40;99.90;;;;;;5132509;27;20058;-78
2023/12/11 09:32:25;;;;;;;8.65;1.58;;;7.50;99.90;;;;;;5133032;27;20106;-77
2023/12/11 09:34:54;;;;;;;9.15;1.85;;;7.40;99.90;;;;;;5132373;27;20030;-78
2023/12/11 09:37:19;;;;;;;4.50;1.40;;;7.40;99.90;;;;;;5132915;27;20027;-77
2023/12/11 09:39:47;;;;;;;6.72;1.50;;;7.40;99.90;;;;;;5132265;27;20034;-79
2023/12/11 09:42:14;;;;;;;8.68;1.58;;;7.50;99.90;;;;;;5114147;27;20035;-79
2023/12/11 09:44:50;;;;;;;10.93;1.83;;;7.50;99.90;;;;;;5131936;27;20075;-80
2023/12/11 09:47:24;;;;;;;11.45;2.25;;;7.50;99.90;;;;;;5132775;27;20083;-77
2023/12/11 09:49:51;;;;;;;5.45;1.30;;;7.50;99.90;;;;;;5132204;27;20035;-77
2023/12/11 09:52:17;;;;;;;9.93;1.83;;;7.50;99.90;;;;;;5132811;27;20444;-76
2023/12/11 09:54:43;;;;;;;11.18;1.88;;;7.50;99.90;;;;;;5131672;27;20106;-78
2023/12/11 09:57:13;;;;;;;10.20;1.67;;;7.60;99.90;;;;;;5132050;27;20464;-77
2023/12/11 09:59:40;;;;;;;6.85;1.45;;;7.60;99.90;;;;;;5132313;27;20114;-77
2023/12/11 10:02:14;;;;;;;9.48;1.80;;;7.50;99.90;;;;;;5131998;27;20041;-77
2023/12/11 10:05:03;;;;;;;7.50;1.60;;;7.60;99.90;;;;;;5132255;27;20019;-79
2023/12/11 10:07:32;;;;;;;7.07;1.60;;;7.60;99.90;;;;;;5131774;27;20114;-77
2023/12/11 10:09:59;;;;;;;7.82;1.92;;;7.60;99.90;;;;;;5132220;27;20050;-77
2023/12/11 10:12:25;;;;;;;7.45;2.00;;;7.60;99.90;;;;;;5131991;27;20035;-77
2023/12/11 10:15:01;;;;;;;9.48;1.88;;;7.70;99.90;;;;;;5131753;27;20019;-77
2023/12/11 10:17:27;;;;;;;13.40;1.98;;;7.70;99.90;;;;;;5115345;27;20031;-78
2023/12/11 10:19:53;;;;;;;8.48;1.60;;;7.80;99.90;;;;;;5132113;27;20015;-78
2023/12/11 10:22:30;;;;;;;11.70;1.50;;;7.80;99.90;;;;;;5132227;27;20027;-78
2023/12/11 10:24:56;;;;;;;6.95;1.60;;;7.80;99.90;;;;;;5131956;27;20106;-77
2023/12/11 10:27:26;;;;;;;11.48;2.03;;;7.90;99.90;;;;;;5131792;27;20152;-78
2023/12/11 10:30:07;;;;;;;10.98;2.17;;;7.90;99.90;;;;;;5113953;27;20026;-77
2023/12/11 10:32:33;;;;;;;8.48;2.00;;;8.00;99.90;;;;;;5113474;27;20023;-78
2023/12/11 10:34:59;;;;;;;9.27;1.88;;;8.00;99.90;;;;;;5132129;27;20106;-78
2023/12/11 10:37:34;;;;;;;9.10;2.17;;;8.00;99.90;;;;;;5098721;27;20525;-77
2023/12/11 10:40:01;;;;;;;9.77;2.17;;;8.00;99.90;;;;;;5119607;27;20130;-77
2023/12/11 10:42:27;;;;;;;9.85;2.30;;;8.10;99.90;;;;;;5092820;28;20465;-77
2023/12/11 10:44:55;;;;;;;7.93;1.92;;;8.10;99.90;;;;;;5110505;28;20030;-77
2023/12/11 10:47:22;;;;;;;8.48;1.70;;;8.10;99.90;;;;;;5111007;28;20446;-77
2023/12/11 10:49:48;;;;;;;11.85;1.98;;;8.20;99.90;;;;;;5110125;28;20472;-78
2023/12/11 10:52:14;;;;;;;9.68;1.50;;;8.30;99.90;;;;;;5111132;28;20123;-78
2023/12/11 10:54:43;;;;;;;7.22;1.50;;;8.30;99.90;;;;;;5111084;28;20028;-77
2023/12/11 10:57:16;;;;;;;9.20;1.92;;;8.40;99.90;;;;;;5110571;28;20051;-77
2023/12/11 10:59:43;;;;;;;9.20;1.70;;;8.40;99.90;;;;;;5092563;28;20322;-78
2023/12/11 11:02:12;;;;;;;8.00;1.90;;;8.50;99.90;;;;;;5110518;28;20116;-77
2023/12/11 11:04:41;;;;;;;7.78;1.80;;;8.50;99.90;;;;;;5092882;28;20092;-77
2023/12/11 11:07:15;;;;;;;4.78;1.65;;;8.50;99.90;;;;;;5114228;28;20031;-77
2023/12/11 11:09:55;;;;;;;7.78;2.38;;;8.50;99.90;;;;;;5131455;28;20122;-77
2023/12/11 11:12:42;;;;;;;7.55;2.30;;;8.50;99.90;;;;;;5132480;28;20020;-76
2023/12/11 11:15:10;;;;;;;10.50;1.90;;;8.50;99.90;;;;;;5131852;28;20026;-77
2023/12/11 11:17:58;;;;;;;5.35;1.85;;;8.40;99.90;;;;;;5131511;28;20525;-77
2023/12/11 11:20:25;;;;;;;8.18;1.90;;;8.40;99.90;;;;;;5131388;28;20444;-77
2023/12/11 11:22:51;;;;;;;7.57;1.85;;;8.40;99.90;;;;;;5112498;28;20024;-78
2023/12/11 11:25:33;;;;;;;7.97;1.80;;;8.30;99.90;;;;;;5131896;28;20030;-77
2023/12/11 11:27:59;;;;;;;8.35;1.70;;;8.20;99.90;;;;;;5131045;28;20443;-78
2023/12/11 11:30:46;;;;;;;13.65;2.35;;;8.20;99.90;;;;;;5131697;28;20033;-78
2023/12/11 11:33:12;;;;;;;5.70;1.60;;;8.10;99.90;;;;;;5131249;28;20035;-78
2023/12/11 11:35:49;;;;;;;9.40;1.83;;;8.10;99.90;;;;;;5131749;28;20341;-76
2023/12/11 11:38:50;;;;;;;7.35;1.63;;;8.00;99.90;;;;;;5112695;28;20034;-78
2023/12/11 11:41:34;;;;;;;13.88;1.85;;;8.00;99.90;;;;;;5131521;28;20360;-76
2023/12/11 11:44:00;;;;;;;13.05;2.28;;;8.00;99.90;;;;;;5134585;27;20115;-78
2023/12/11 11:46:27;;;;;;;7.10;1.95;;;8.00;99.90;;;;;;5135238;27;20140;-77
2023/12/11 11:48:53;;;;;;;7.15;1.98;;;8.00;99.90;;;;;;5134616;27;20100;-79
2023/12/11 11:51:21;;;;;;;7.82;2.05;;;8.00;99.90;;;;;;5134859;27;20038;-78
2023/12/11 11:53:52;;;;;;;5.57;2.05;;;8.00;99.90;;;;;;5116692;27;20031;-77
2023/12/11 11:56:18;;;;;;;6.00;1.90;;;8.00;99.90;;;;;;5135291;27;20122;-78
2023/12/11 11:58:44;;;;;;;8.88;1.83;;;8.10;99.90;;;;;;5134507;27;20449;-78
2023/12/11 12:01:11;;;;;;;7.28;1.67;;;8.20;99.90;;;;;;5115980;27;20066;-78
2023/12/11 12:03:43;;;;;;;6.47;1.50;;;8.30;99.90;;;;;;5135045;27;20075;-78
2023/12/11 12:06:10;;;;;;;9.98;1.73;;;8.40;99.90;;;;;;5134308;27;20035;-76
2023/12/11 12:08:41;;;;;;;12.15;2.97;;;8.50;99.90;;;;;;5134812;27;20035;-78
2023/12/11 12:11:07;;;;;;;11.82;2.00;;;8.60;99.90;;;;;;5115630;27;20424;-78
2023/12/11 12:13:34;;;;;;;11.32;2.20;;;8.70;99.90;;;;;;5135256;27;20095;-78
2023/12/11 12:15:59;;;;;;;6.93;1.63;;;8.70;99.90;;;;;;5116063;27;20046;-78
2023/12/11 12:18:25;;;;;;;8.57;1.80;;;8.80;99.90;;;;;;5135071;27;20460;-78
2023/12/11 12:21:02;;;;;;;10.27;2.42;;;8.80;99.90;;;;;;5134828;27;20035;-79
2023/12/11 12:23:27;;;;;;;3.25;1.20;;;8.80;99.90;;;;;;5134391;27;20026;-79
2023/12/11 12:25:57;;;;;;;5.63;1.75;;;8.90;99.90;;;;;;5134210;27;20031;-78
2023/12/11 12:28:23;;;;;;;5.88;1.60;;;8.90;99.90;;;;;;5135446;27;20096;-77
2023/12/11 12:30:49;;;;;;;5.00;1.33;;;8.90;99.90;;;;;;5134438;27;20059;-77
2023/12/11 12:33:18;;;;;;;4.55;1.13;;;8.90;99.90;;;;;;5134373;27;20042;-77
2023/12/11 12:35:45;;;;;;;9.82;1.92;;;9.00;99.90;;;;;;5134247;27;20080;-77
2023/12/11 12:38:13;;;;;;;7.45;1.67;;;9.00;99.90;;;;;;5115129;27;20131;-77
2023/12/11 12:40:40;;;;;;;4.63;1.25;;;9.10;99.90;;;;;;5133988;27;20031;-77
2023/12/11 12:43:12;;;;;;;3.60;1.15;;;9.10;99.90;;;;;;5133600;27;20023;-77
2023/12/11 12:45:39;;;;;;;4.13;1.15;;;9.10;99.90;;;;;;5134271;27;20023;-77
2023/12/11 12:48:06;;;;;;;7.20;1.45;;;9.10;99.90;;;;;;5133981;27;20043;-77
2023/12/11 12:50:32;;;;;;;5.53;2.28;;;9.20;99.90;;;;;;5133852;27;20107;-77
2023/12/11 12:53:05;;;;;;;11.20;1.75;;;9.20;99.90;;;;;;5133772;27;20038;-77